sensor_id;sensor_type;location;lat;lon;timestamp;P1;durP1;ratioP1;P2;durP2;ratioP2
64738;SDS011;51175;51.186;0.276;2022-12-05T05:40:05;16.13;;;11.25;;
64738;SDS011;51175;51.186;0.276;2022-12-05T05:40:38;13.93;;;10.13;;
64738;SDS011;51175;51.186;0.276;2022-12-05T05:41:12;14.57;;;10.70;;
64738;SDS011;51175;51.186;0.276;2022-12-05T05:41:44;17.05;;;11.75;;
64738;SDS011;51175;51.186;0.276;2022-12-05T05:42:14;15.00;;;11.05;;
64738;SDS011;51175;51.186;0.276;2022-12-05T05:42:45;14.65;;;10.52;;
64738;SDS011;51175;51.186;0.276;2022-12-05T05:43:17;16.88;;;11.07;;
64738;SDS011;51175;51.186;0.276;2022-12-05T05:43:48;15.57;;;11.52;;
64738;SDS011;51175;51.186;0.276;2022-12-05T05:44:19;17.05;;;11.18;;
64738;SDS011;51175;51.186;0.276;2022-12-05T05:44:49;13.55;;;10.65;;
64738;SDS011;51175;51.186;0.276;2022-12-05T05:45:20;15.93;;;10.50;;
64738;SDS011;51175;51.186;0.276;2022-12-05T05:45:50;15.00;;;11.02;;
64738;SDS011;51175;51.186;0.276;2022-12-05T05:46:22;15.40;;;10.52;;
64738;SDS011;51175;51.186;0.276;2022-12-05T05:46:54;15.02;;;10.75;;
64738;SDS011;51175;51.186;0.276;2022-12-05T05:47:24;13.68;;;10.43;;
64738;SDS011;51175;51.186;0.276;2022-12-05T05:47:55;16.90;;;9.70;;
64738;SDS011;51175;51.186;0.276;2022-12-05T05:48:25;15.18;;;10.45;;
64738;SDS011;51175;51.186;0.276;2022-12-05T05:48:56;16.63;;;11.00;;
64738;SDS011;51175;51.186;0.276;2022-12-05T05:49:26;16.00;;;11.40;;
64738;SDS011;51175;51.186;0.276;2022-12-05T05:49:57;15.15;;;10.95;;
64738;SDS011;51175;51.186;0.276;2022-12-05T05:50:27;13.43;;;9.93;;
64738;SDS011;51175;51.186;0.276;2022-12-05T05:50:58;15.70;;;10.10;;
64738;SDS011;51175;51.186;0.276;2022-12-05T05:51:29;14.15;;;10.77;;
64738;SDS011;51175;51.186;0.276;2022-12-05T05:52:01;13.38;;;8.55;;
64738;SDS011;51175;51.186;0.276;2022-12-05T05:52:32;13.02;;;9.88;;
64738;SDS011;51175;51.186;0.276;2022-12-05T05:53:04;13.57;;;9.13;;
64738;SDS011;51175;51.186;0.276;2022-12-05T05:53:34;14.18;;;9.95;;
64738;SDS011;51175;51.186;0.276;2022-12-05T05:54:05;14.60;;;10.52;;
64738;SDS011;51175;51.186;0.276;2022-12-05T05:54:35;14.02;;;10.23;;
64738;SDS011;51175;51.186;0.276;2022-12-05T05:55:06;13.77;;;10.68;;
64738;SDS011;51175;51.186;0.276;2022-12-05T05:55:38;13.38;;;9.90;;
64738;SDS011;51175;51.186;0.276;2022-12-05T05:56:10;14.63;;;10.45;;
64738;SDS011;51175;51.186;0.276;2022-12-05T05:56:42;15.05;;;10.65;;
64738;SDS011;51175;51.186;0.276;2022-12-05T05:57:13;15.30;;;11.55;;
64738;SDS011;51175;51.186;0.276;2022-12-05T05:57:43;13.13;;;9.57;;
64738;SDS011;51175;51.186;0.276;2022-12-05T05:58:14;16.45;;;9.70;;
64738;SDS011;51175;51.186;0.276;2022-12-05T05:58:45;13.90;;;10.73;;
64738;SDS011;51175;51.186;0.276;2022-12-05T05:59:16;14.52;;;10.68;;
64738;SDS011;51175;51.186;0.276;2022-12-05T05:59:46;14.00;;;9.70;;
64738;SDS011;51175;51.186;0.276;2022-12-05T06:00:17;13.10;;;9.23;;
64738;SDS011;51175;51.186;0.276;2022-12-05T06:00:48;13.57;;;10.00;;
64738;SDS011;51175;51.186;0.276;2022-12-05T06:01:18;14.50;;;10.45;;
64738;SDS011;51175;51.186;0.276;2022-12-05T06:01:51;16.30;;;10.20;;
64738;SDS011;51175;51.186;0.276;2022-12-05T06:02:22;18.40;;;11.60;;
64738;SDS011;51175;51.186;0.276;2022-12-05T06:02:52;24.65;;;13.10;;
64738;SDS011;51175;51.186;0.276;2022-12-05T06:03:23;22.20;;;13.18;;
64738;SDS011;51175;51.186;0.276;2022-12-05T06:03:53;27.77;;;12.82;;
64738;SDS011;51175;51.186;0.276;2022-12-05T06:04:24;24.15;;;13.23;;
64738;SDS011;51175;51.186;0.276;2022-12-05T06:04:54;21.60;;;14.10;;
64738;SDS011;51175;51.186;0.276;2022-12-05T06:05:25;24.30;;;13.65;;
64738;SDS011;51175;51.186;0.276;2022-12-05T06:05:58;23.67;;;14.60;;
64738;SDS011;51175;51.186;0.276;2022-12-05T06:06:30;29.02;;;14.80;;
64738;SDS011;51175;51.186;0.276;2022-12-05T06:07:01;21.67;;;13.68;;
64738;SDS011;51175;51.186;0.276;2022-12-05T06:07:31;23.95;;;13.80;;
64738;SDS011;51175;51.186;0.276;2022-12-05T06:08:02;19.33;;;13.63;;
64738;SDS011;51175;51.186;0.276;2022-12-05T06:08:33;20.25;;;13.68;;
64738;SDS011;51175;51.186;0.276;2022-12-05T06:09:06;27.58;;;13.80;;
64738;SDS011;51175;51.186;0.276;2022-12-05T06:09:37;32.85;;;14.30;;
64738;SDS011;51175;51.186;0.276;2022-12-05T06:10:08;22.23;;;13.35;;
64738;SDS011;51175;51.186;0.276;2022-12-05T06:10:38;21.98;;;14.23;;
64738;SDS011;51175;51.186;0.276;2022-12-05T06:11:10;19.83;;;13.98;;
64738;SDS011;51175;51.186;0.276;2022-12-05T06:11:43;25.23;;;12.55;;
64738;SDS011;51175;51.186;0.276;2022-12-05T06:12:13;26.02;;;13.68;;
64738;SDS011;51175;51.186;0.276;2022-12-05T06:12:43;21.52;;;12.27;;
64738;SDS011;51175;51.186;0.276;2022-12-05T06:13:14;26.98;;;14.75;;
64738;SDS011;51175;51.186;0.276;2022-12-05T06:13:44;18.98;;;12.20;;
64738;SDS011;51175;51.186;0.276;2022-12-05T06:14:15;25.92;;;12.80;;
64738;SDS011;51175;51.186;0.276;2022-12-05T06:14:46;20.83;;;13.07;;
64738;SDS011;51175;51.186;0.276;2022-12-05T06:15:18;19.30;;;12.82;;
64738;SDS011;51175;51.186;0.276;2022-12-05T06:15:48;18.73;;;13.00;;
64738;SDS011;51175;51.186;0.276;2022-12-05T06:16:19;21.17;;;13.52;;
64738;SDS011;51175;51.186;0.276;2022-12-05T06:16:51;18.58;;;12.73;;
64738;SDS011;51175;51.186;0.276;2022-12-05T06:17:21;22.90;;;13.52;;
64738;SDS011;51175;51.186;0.276;2022-12-05T06:17:52;21.25;;;11.82;;
64738;SDS011;51175;51.186;0.276;2022-12-05T06:18:22;18.27;;;12.20;;
64738;SDS011;51175;51.186;0.276;2022-12-05T06:18:52;21.45;;;12.55;;
64738;SDS011;51175;51.186;0.276;2022-12-05T06:19:23;22.15;;;12.93;;
64738;SDS011;51175;51.186;0.276;2022-12-05T06:19:53;18.00;;;12.15;;
64738;SDS011;51175;51.186;0.276;2022-12-05T06:20:24;25.70;;;13.43;;
64738;SDS011;51175;51.186;0.276;2022-12-05T06:20:55;18.95;;;12.05;;
64738;SDS011;51175;51.186;0.276;2022-12-05T06:21:26;19.30;;;12.95;;
64738;SDS011;51175;51.186;0.276;2022-12-05T06:21:57;21.05;;;13.00;;
64738;SDS011;51175;51.186;0.276;2022-12-05T06:22:28;20.13;;;12.93;;
64738;SDS011;51175;51.186;0.276;2022-12-05T06:22:58;19.85;;;13.77;;
64738;SDS011;51175;51.186;0.276;2022-12-05T06:23:29;21.38;;;13.20;;
64738;SDS011;51175;51.186;0.276;2022-12-05T06:23:59;19.73;;;12.73;;
64738;SDS011;51175;51.186;0.276;2022-12-05T06:24:29;24.00;;;12.30;;
64738;SDS011;51175;51.186;0.276;2022-12-05T06:25:00;23.08;;;12.60;;
64738;SDS011;51175;51.186;0.276;2022-12-05T06:25:30;20.73;;;12.38;;
64738;SDS011;51175;51.186;0.276;2022-12-05T06:26:02;18.25;;;11.75;;
64738;SDS011;51175;51.186;0.276;2022-12-05T06:26:33;18.15;;;12.10;;
64738;SDS011;51175;51.186;0.276;2022-12-05T06:27:04;19.33;;;12.63;;
64738;SDS011;51175;51.186;0.276;2022-12-05T06:27:34;21.95;;;11.88;;
64738;SDS011;51175;51.186;0.276;2022-12-05T06:28:04;19.13;;;11.65;;
64738;SDS011;51175;51.186;0.276;2022-12-05T06:28:35;20.90;;;12.85;;
64738;SDS011;51175;51.186;0.276;2022-12-05T06:29:06;21.50;;;12.68;;
64738;SDS011;51175;51.186;0.276;2022-12-05T06:29:37;19.55;;;11.77;;
64738;SDS011;51175;51.186;0.276;2022-12-05T06:30:07;17.67;;;11.50;;
64738;SDS011;51175;51.186;0.276;2022-12-05T06:30:38;17.38;;;11.55;;
64738;SDS011;51175;51.186;0.276;2022-12-05T06:31:09;20.45;;;11.50;;
64738;SDS011;51175;51.186;0.276;2022-12-05T06:31:41;18.05;;;12.50;;
64738;SDS011;51175;51.186;0.276;2022-12-05T06:32:12;18.65;;;12.30;;
64738;SDS011;51175;51.186;0.276;2022-12-05T06:32:42;19.65;;;11.75;;
64738;SDS011;51175;51.186;0.276;2022-12-05T06:33:13;20.02;;;13.65;;
64738;SDS011;51175;51.186;0.276;2022-12-05T06:33:43;18.48;;;11.65;;
64738;SDS011;51175;51.186;0.276;2022-12-05T06:34:14;16.77;;;11.32;;
64738;SDS011;51175;51.186;0.276;2022-12-05T06:34:44;17.13;;;11.63;;
64738;SDS011;51175;51.186;0.276;2022-12-05T06:35:15;17.70;;;11.13;;
64738;SDS011;51175;51.186;0.276;2022-12-05T06:35:45;20.55;;;12.15;;
64738;SDS011;51175;51.186;0.276;2022-12-05T06:36:18;19.05;;;12.18;;
64738;SDS011;51175;51.186;0.276;2022-12-05T06:36:50;17.77;;;11.15;;
64738;SDS011;51175;51.186;0.276;2022-12-05T06:37:21;17.67;;;11.55;;
64738;SDS011;51175;51.186;0.276;2022-12-05T06:37:51;14.35;;;10.00;;
64738;SDS011;51175;51.186;0.276;2022-12-05T06:38:22;17.17;;;10.65;;
64738;SDS011;51175;51.186;0.276;2022-12-05T06:38:52;18.45;;;11.25;;
64738;SDS011;51175;51.186;0.276;2022-12-05T06:39:22;16.20;;;12.07;;
64738;SDS011;51175;51.186;0.276;2022-12-05T06:39:53;17.92;;;12.75;;
64738;SDS011;51175;51.186;0.276;2022-12-05T06:40:23;19.77;;;11.52;;
64738;SDS011;51175;51.186;0.276;2022-12-05T06:40:54;16.98;;;10.68;;
64738;SDS011;51175;51.186;0.276;2022-12-05T06:41:25;17.05;;;11.10;;
64738;SDS011;51175;51.186;0.276;2022-12-05T06:41:56;15.40;;;11.50;;
64738;SDS011;51175;51.186;0.276;2022-12-05T06:42:27;14.15;;;10.25;;
64738;SDS011;51175;51.186;0.276;2022-12-05T06:42:57;17.58;;;11.00;;
64738;SDS011;51175;51.186;0.276;2022-12-05T06:43:28;18.10;;;11.45;;
64738;SDS011;51175;51.186;0.276;2022-12-05T06:43:58;19.92;;;11.50;;
64738;SDS011;51175;51.186;0.276;2022-12-05T06:44:29;16.42;;;10.38;;
64738;SDS011;51175;51.186;0.276;2022-12-05T06:45:00;15.77;;;11.77;;
64738;SDS011;51175;51.186;0.276;2022-12-05T06:45:31;18.55;;;11.57;;
64738;SDS011;51175;51.186;0.276;2022-12-05T06:46:05;15.10;;;10.95;;
64738;SDS011;51175;51.186;0.276;2022-12-05T06:46:37;14.57;;;10.35;;
64738;SDS011;51175;51.186;0.276;2022-12-05T06:47:08;16.40;;;11.45;;
64738;SDS011;51175;51.186;0.276;2022-12-05T06:47:38;17.30;;;12.27;;
64738;SDS011;51175;51.186;0.276;2022-12-05T06:48:08;17.85;;;10.57;;
64738;SDS011;51175;51.186;0.276;2022-12-05T06:48:39;16.88;;;11.13;;
64738;SDS011;51175;51.186;0.276;2022-12-05T06:49:09;13.93;;;10.38;;
64738;SDS011;51175;51.186;0.276;2022-12-05T06:49:40;15.75;;;12.23;;
64738;SDS011;51175;51.186;0.276;2022-12-05T06:50:10;15.15;;;10.85;;
64738;SDS011;51175;51.186;0.276;2022-12-05T06:50:48;16.63;;;11.20;;
64738;SDS011;51175;51.186;0.276;2022-12-05T06:51:20;20.00;;;11.43;;
64738;SDS011;51175;51.186;0.276;2022-12-05T06:51:50;18.23;;;11.35;;
64738;SDS011;51175;51.186;0.276;2022-12-05T06:52:22;17.30;;;10.55;;
64738;SDS011;51175;51.186;0.276;2022-12-05T06:52:52;15.55;;;10.70;;
64738;SDS011;51175;51.186;0.276;2022-12-05T06:53:23;16.95;;;10.68;;
64738;SDS011;51175;51.186;0.276;2022-12-05T06:53:54;16.05;;;11.00;;
64738;SDS011;51175;51.186;0.276;2022-12-05T06:54:25;15.85;;;10.38;;
64738;SDS011;51175;51.186;0.276;2022-12-05T06:54:55;14.20;;;10.02;;
64738;SDS011;51175;51.186;0.276;2022-12-05T06:55:26;16.50;;;9.32;;
64738;SDS011;51175;51.186;0.276;2022-12-05T06:55:58;16.15;;;10.60;;
64738;SDS011;51175;51.186;0.276;2022-12-05T06:56:30;16.17;;;10.50;;
64738;SDS011;51175;51.186;0.276;2022-12-05T06:57:01;14.70;;;10.55;;
64738;SDS011;51175;51.186;0.276;2022-12-05T06:57:32;16.27;;;10.18;;
64738;SDS011;51175;51.186;0.276;2022-12-05T06:58:02;14.55;;;9.85;;
64738;SDS011;51175;51.186;0.276;2022-12-05T06:58:32;16.75;;;10.77;;
64738;SDS011;51175;51.186;0.276;2022-12-05T06:59:03;14.10;;;9.82;;
64738;SDS011;51175;51.186;0.276;2022-12-05T06:59:33;16.40;;;9.45;;
64738;SDS011;51175;51.186;0.276;2022-12-05T07:00:04;16.00;;;10.65;;
64738;SDS011;51175;51.186;0.276;2022-12-05T07:00:54;16.65;;;9.27;;
64738;SDS011;51175;51.186;0.276;2022-12-05T07:01:43;16.88;;;10.25;;
64738;SDS011;51175;51.186;0.276;2022-12-05T07:02:15;18.27;;;9.45;;
64738;SDS011;51175;51.186;0.276;2022-12-05T07:02:45;14.45;;;9.38;;
64738;SDS011;51175;51.186;0.276;2022-12-05T07:03:16;16.75;;;10.52;;
64738;SDS011;51175;51.186;0.276;2022-12-05T07:03:49;15.80;;;11.07;;
64738;SDS011;51175;51.186;0.276;2022-12-05T07:04:20;15.23;;;9.40;;
64738;SDS011;51175;51.186;0.276;2022-12-05T07:04:55;16.50;;;10.57;;
64738;SDS011;51175;51.186;0.276;2022-12-05T07:05:25;16.60;;;10.07;;
64738;SDS011;51175;51.186;0.276;2022-12-05T07:05:58;15.85;;;10.57;;
64738;SDS011;51175;51.186;0.276;2022-12-05T07:06:30;13.52;;;10.07;;
64738;SDS011;51175;51.186;0.276;2022-12-05T07:07:02;13.30;;;9.10;;
64738;SDS011;51175;51.186;0.276;2022-12-05T07:07:32;14.13;;;9.90;;
64738;SDS011;51175;51.186;0.276;2022-12-05T07:08:03;15.30;;;9.77;;
64738;SDS011;51175;51.186;0.276;2022-12-05T07:08:33;13.18;;;9.50;;
64738;SDS011;51175;51.186;0.276;2022-12-05T07:09:04;15.18;;;10.63;;
64738;SDS011;51175;51.186;0.276;2022-12-05T07:09:34;14.20;;;9.52;;
64738;SDS011;51175;51.186;0.276;2022-12-05T07:10:20;17.80;;;10.18;;
64738;SDS011;51175;51.186;0.276;2022-12-05T07:10:51;16.20;;;10.63;;
64738;SDS011;51175;51.186;0.276;2022-12-05T07:11:21;14.82;;;10.07;;
64738;SDS011;51175;51.186;0.276;2022-12-05T07:11:52;14.32;;;9.85;;
64738;SDS011;51175;51.186;0.276;2022-12-05T07:12:22;15.00;;;8.75;;
64738;SDS011;51175;51.186;0.276;2022-12-05T07:12:53;14.18;;;9.73;;
64738;SDS011;51175;51.186;0.276;2022-12-05T07:13:23;14.52;;;10.45;;
64738;SDS011;51175;51.186;0.276;2022-12-05T07:13:54;15.82;;;9.95;;
64738;SDS011;51175;51.186;0.276;2022-12-05T07:14:24;12.80;;;9.30;;
64738;SDS011;51175;51.186;0.276;2022-12-05T07:14:55;15.15;;;10.13;;
64738;SDS011;51175;51.186;0.276;2022-12-05T07:15:25;13.68;;;9.30;;
64738;SDS011;51175;51.186;0.276;2022-12-05T07:15:55;17.92;;;9.45;;
64738;SDS011;51175;51.186;0.276;2022-12-05T07:16:28;13.85;;;9.40;;
64738;SDS011;51175;51.186;0.276;2022-12-05T07:16:58;14.48;;;9.10;;
64738;SDS011;51175;51.186;0.276;2022-12-05T07:17:29;16.92;;;9.50;;
64738;SDS011;51175;51.186;0.276;2022-12-05T07:18:04;13.05;;;9.27;;
64738;SDS011;51175;51.186;0.276;2022-12-05T07:18:34;13.80;;;9.13;;
64738;SDS011;51175;51.186;0.276;2022-12-05T07:19:05;11.95;;;9.13;;
64738;SDS011;51175;51.186;0.276;2022-12-05T07:19:36;14.18;;;9.50;;
64738;SDS011;51175;51.186;0.276;2022-12-05T07:20:06;15.15;;;9.77;;
64738;SDS011;51175;51.186;0.276;2022-12-05T07:20:39;18.65;;;10.50;;
64738;SDS011;51175;51.186;0.276;2022-12-05T07:21:10;13.65;;;8.98;;
64738;SDS011;51175;51.186;0.276;2022-12-05T07:21:42;13.90;;;8.77;;
64738;SDS011;51175;51.186;0.276;2022-12-05T07:22:12;12.27;;;8.95;;
64738;SDS011;51175;51.186;0.276;2022-12-05T07:22:43;15.35;;;10.07;;
64738;SDS011;51175;51.186;0.276;2022-12-05T07:23:14;12.60;;;8.48;;
64738;SDS011;51175;51.186;0.276;2022-12-05T07:23:45;13.95;;;9.63;;
64738;SDS011;51175;51.186;0.276;2022-12-05T07:24:16;12.43;;;9.23;;
64738;SDS011;51175;51.186;0.276;2022-12-05T07:24:46;13.38;;;9.30;;
64738;SDS011;51175;51.186;0.276;2022-12-05T07:25:20;14.02;;;9.73;;
64738;SDS011;51175;51.186;0.276;2022-12-05T07:25:52;14.35;;;9.95;;
64738;SDS011;51175;51.186;0.276;2022-12-05T07:26:23;14.30;;;10.32;;
64738;SDS011;51175;51.186;0.276;2022-12-05T07:26:54;15.40;;;9.38;;
64738;SDS011;51175;51.186;0.276;2022-12-05T07:27:24;12.65;;;9.13;;
64738;SDS011;51175;51.186;0.276;2022-12-05T07:27:54;12.50;;;8.50;;
64738;SDS011;51175;51.186;0.276;2022-12-05T07:28:25;14.10;;;8.88;;
64738;SDS011;51175;51.186;0.276;2022-12-05T07:28:55;13.18;;;9.18;;
64738;SDS011;51175;51.186;0.276;2022-12-05T07:29:26;13.82;;;8.90;;
64738;SDS011;51175;51.186;0.276;2022-12-05T07:29:57;13.77;;;9.48;;
64738;SDS011;51175;51.186;0.276;2022-12-05T07:30:27;12.45;;;8.65;;
64738;SDS011;51175;51.186;0.276;2022-12-05T07:30:58;12.32;;;8.75;;
64738;SDS011;51175;51.186;0.276;2022-12-05T07:31:30;12.73;;;8.55;;
64738;SDS011;51175;51.186;0.276;2022-12-05T07:32:02;10.70;;;7.75;;
64738;SDS011;51175;51.186;0.276;2022-12-05T07:32:33;13.30;;;9.48;;
64738;SDS011;51175;51.186;0.276;2022-12-05T07:33:04;13.93;;;9.50;;
64738;SDS011;51175;51.186;0.276;2022-12-05T07:33:34;11.40;;;9.02;;
64738;SDS011;51175;51.186;0.276;2022-12-05T07:34:06;12.60;;;8.07;;
64738;SDS011;51175;51.186;0.276;2022-12-05T07:34:36;15.38;;;10.32;;
64738;SDS011;51175;51.186;0.276;2022-12-05T07:35:07;12.73;;;8.45;;
64738;SDS011;51175;51.186;0.276;2022-12-05T07:35:38;11.75;;;8.73;;
64738;SDS011;51175;51.186;0.276;2022-12-05T07:36:09;13.60;;;9.65;;
64738;SDS011;51175;51.186;0.276;2022-12-05T07:36:42;13.50;;;8.27;;
64738;SDS011;51175;51.186;0.276;2022-12-05T07:37:12;16.17;;;8.77;;
64738;SDS011;51175;51.186;0.276;2022-12-05T07:37:43;11.80;;;8.38;;
64738;SDS011;51175;51.186;0.276;2022-12-05T07:38:13;13.65;;;8.57;;
64738;SDS011;51175;51.186;0.276;2022-12-05T07:38:44;12.23;;;7.80;;
64738;SDS011;51175;51.186;0.276;2022-12-05T07:39:15;12.85;;;9.30;;
64738;SDS011;51175;51.186;0.276;2022-12-05T07:39:45;12.65;;;8.80;;
64738;SDS011;51175;51.186;0.276;2022-12-05T07:40:15;13.02;;;9.40;;
64738;SDS011;51175;51.186;0.276;2022-12-05T07:40:46;11.77;;;8.68;;
64738;SDS011;51175;51.186;0.276;2022-12-05T07:41:18;15.18;;;8.77;;
64738;SDS011;51175;51.186;0.276;2022-12-05T07:41:51;12.75;;;8.27;;
64738;SDS011;51175;51.186;0.276;2022-12-05T07:42:21;12.07;;;8.50;;
64738;SDS011;51175;51.186;0.276;2022-12-05T07:42:51;10.63;;;7.80;;
64738;SDS011;51175;51.186;0.276;2022-12-05T07:43:22;14.95;;;9.45;;
64738;SDS011;51175;51.186;0.276;2022-12-05T07:43:53;14.55;;;9.93;;
64738;SDS011;51175;51.186;0.276;2022-12-05T07:44:25;12.00;;;8.50;;
64738;SDS011;51175;51.186;0.276;2022-12-05T07:44:56;11.35;;;8.45;;
64738;SDS011;51175;51.186;0.276;2022-12-05T07:45:26;11.52;;;8.15;;
64738;SDS011;51175;51.186;0.276;2022-12-05T07:46:00;11.80;;;8.45;;
64738;SDS011;51175;51.186;0.276;2022-12-05T07:46:31;11.68;;;8.02;;
64738;SDS011;51175;51.186;0.276;2022-12-05T07:47:01;11.82;;;8.65;;
64738;SDS011;51175;51.186;0.276;2022-12-05T07:47:32;12.43;;;7.93;;
64738;SDS011;51175;51.186;0.276;2022-12-05T07:48:02;11.90;;;8.68;;
64738;SDS011;51175;51.186;0.276;2022-12-05T07:48:33;14.30;;;9.90;;
64738;SDS011;51175;51.186;0.276;2022-12-05T07:49:03;13.07;;;8.23;;
64738;SDS011;51175;51.186;0.276;2022-12-05T07:49:34;12.43;;;8.77;;
64738;SDS011;51175;51.186;0.276;2022-12-05T07:50:04;10.80;;;8.35;;
64738;SDS011;51175;51.186;0.276;2022-12-05T07:50:35;11.88;;;8.63;;
64738;SDS011;51175;51.186;0.276;2022-12-05T07:51:07;10.65;;;7.63;;
64738;SDS011;51175;51.186;0.276;2022-12-05T07:51:38;10.55;;;7.93;;
64738;SDS011;51175;51.186;0.276;2022-12-05T07:52:08;11.68;;;8.73;;
64738;SDS011;51175;51.186;0.276;2022-12-05T07:52:39;12.30;;;8.82;;
64738;SDS011;51175;51.186;0.276;2022-12-05T07:53:09;11.93;;;8.73;;
64738;SDS011;51175;51.186;0.276;2022-12-05T07:53:40;11.05;;;8.48;;
64738;SDS011;51175;51.186;0.276;2022-12-05T07:54:12;12.30;;;8.45;;
64738;SDS011;51175;51.186;0.276;2022-12-05T07:54:43;11.02;;;8.95;;
64738;SDS011;51175;51.186;0.276;2022-12-05T07:55:13;12.02;;;8.25;;
64738;SDS011;51175;51.186;0.276;2022-12-05T07:55:43;11.25;;;7.85;;
64738;SDS011;51175;51.186;0.276;2022-12-05T07:56:14;10.52;;;8.05;;
64738;SDS011;51175;51.186;0.276;2022-12-05T07:56:46;11.07;;;8.13;;
64738;SDS011;51175;51.186;0.276;2022-12-05T07:57:16;10.75;;;8.68;;
64738;SDS011;51175;51.186;0.276;2022-12-05T07:57:47;11.70;;;7.80;;
64738;SDS011;51175;51.186;0.276;2022-12-05T07:58:17;14.23;;;9.65;;
64738;SDS011;51175;51.186;0.276;2022-12-05T07:58:48;12.27;;;8.13;;
64738;SDS011;51175;51.186;0.276;2022-12-05T07:59:20;10.60;;;8.07;;
64738;SDS011;51175;51.186;0.276;2022-12-05T07:59:50;10.98;;;8.27;;
64738;SDS011;51175;51.186;0.276;2022-12-05T08:00:20;12.18;;;8.30;;
64738;SDS011;51175;51.186;0.276;2022-12-05T08:00:51;11.05;;;8.52;;
64738;SDS011;51175;51.186;0.276;2022-12-05T08:01:23;15.93;;;8.85;;
64738;SDS011;51175;51.186;0.276;2022-12-05T08:01:56;12.98;;;8.60;;
64738;SDS011;51175;51.186;0.276;2022-12-05T08:02:26;13.38;;;8.77;;
64738;SDS011;51175;51.186;0.276;2022-12-05T08:02:57;12.10;;;9.02;;
64738;SDS011;51175;51.186;0.276;2022-12-05T08:03:27;11.18;;;7.30;;
64738;SDS011;51175;51.186;0.276;2022-12-05T08:03:58;12.48;;;8.40;;
64738;SDS011;51175;51.186;0.276;2022-12-05T08:04:29;13.63;;;7.97;;
64738;SDS011;51175;51.186;0.276;2022-12-05T08:04:59;12.18;;;9.60;;
64738;SDS011;51175;51.186;0.276;2022-12-05T08:05:29;11.68;;;8.07;;
64738;SDS011;51175;51.186;0.276;2022-12-05T08:06:03;11.30;;;7.68;;
64738;SDS011;51175;51.186;0.276;2022-12-05T08:06:35;11.65;;;8.00;;
64738;SDS011;51175;51.186;0.276;2022-12-05T08:07:07;12.13;;;8.15;;
64738;SDS011;51175;51.186;0.276;2022-12-05T08:07:39;13.50;;;8.32;;
64738;SDS011;51175;51.186;0.276;2022-12-05T08:08:10;12.10;;;8.77;;
64738;SDS011;51175;51.186;0.276;2022-12-05T08:08:41;10.63;;;7.65;;
64738;SDS011;51175;51.186;0.276;2022-12-05T08:09:12;13.82;;;8.40;;
64738;SDS011;51175;51.186;0.276;2022-12-05T08:09:42;10.27;;;7.30;;
64738;SDS011;51175;51.186;0.276;2022-12-05T08:10:13;11.82;;;7.75;;
64738;SDS011;51175;51.186;0.276;2022-12-05T08:10:43;13.38;;;8.77;;
64738;SDS011;51175;51.186;0.276;2022-12-05T08:11:21;9.10;;;7.88;;
64738;SDS011;51175;51.186;0.276;2022-12-05T08:11:56;13.40;;;8.75;;
64738;SDS011;51175;51.186;0.276;2022-12-05T08:12:26;9.80;;;7.20;;
64738;SDS011;51175;51.186;0.276;2022-12-05T08:12:57;13.50;;;7.88;;
64738;SDS011;51175;51.186;0.276;2022-12-05T08:13:28;11.05;;;7.40;;
64738;SDS011;51175;51.186;0.276;2022-12-05T08:13:58;10.88;;;8.25;;
64738;SDS011;51175;51.186;0.276;2022-12-05T08:14:29;10.48;;;7.15;;
64738;SDS011;51175;51.186;0.276;2022-12-05T08:14:59;11.18;;;7.47;;
64738;SDS011;51175;51.186;0.276;2022-12-05T08:15:30;11.00;;;7.93;;
64738;SDS011;51175;51.186;0.276;2022-12-05T08:16:05;11.23;;;7.90;;
64738;SDS011;51175;51.186;0.276;2022-12-05T08:16:38;11.55;;;8.52;;
64738;SDS011;51175;51.186;0.276;2022-12-05T08:17:08;10.52;;;7.53;;
64738;SDS011;51175;51.186;0.276;2022-12-05T08:17:39;9.32;;;7.35;;
64738;SDS011;51175;51.186;0.276;2022-12-05T08:18:09;11.05;;;8.23;;
64738;SDS011;51175;51.186;0.276;2022-12-05T08:18:40;10.70;;;7.47;;
64738;SDS011;51175;51.186;0.276;2022-12-05T08:19:12;9.57;;;7.47;;
64738;SDS011;51175;51.186;0.276;2022-12-05T08:19:43;11.82;;;8.13;;
64738;SDS011;51175;51.186;0.276;2022-12-05T08:20:13;11.82;;;7.68;;
64738;SDS011;51175;51.186;0.276;2022-12-05T08:20:44;11.07;;;8.00;;
64738;SDS011;51175;51.186;0.276;2022-12-05T08:21:17;10.27;;;8.43;;
64738;SDS011;51175;51.186;0.276;2022-12-05T08:21:48;9.57;;;7.47;;
64738;SDS011;51175;51.186;0.276;2022-12-05T08:22:20;11.85;;;7.65;;
64738;SDS011;51175;51.186;0.276;2022-12-05T08:22:51;10.95;;;7.82;;
64738;SDS011;51175;51.186;0.276;2022-12-05T08:23:22;11.65;;;8.38;;
64738;SDS011;51175;51.186;0.276;2022-12-05T08:23:53;11.52;;;9.15;;
64738;SDS011;51175;51.186;0.276;2022-12-05T08:24:24;10.15;;;8.05;;
64738;SDS011;51175;51.186;0.276;2022-12-05T08:24:54;11.13;;;7.70;;
64738;SDS011;51175;51.186;0.276;2022-12-05T08:25:24;9.77;;;7.90;;
64738;SDS011;51175;51.186;0.276;2022-12-05T08:25:55;8.95;;;7.70;;
64738;SDS011;51175;51.186;0.276;2022-12-05T08:26:26;9.93;;;7.85;;
64738;SDS011;51175;51.186;0.276;2022-12-05T08:26:58;11.88;;;7.55;;
64738;SDS011;51175;51.186;0.276;2022-12-05T08:27:29;10.05;;;7.15;;
64738;SDS011;51175;51.186;0.276;2022-12-05T08:27:59;10.43;;;7.80;;
64738;SDS011;51175;51.186;0.276;2022-12-05T08:28:30;11.10;;;6.88;;
64738;SDS011;51175;51.186;0.276;2022-12-05T08:29:19;10.65;;;7.88;;
64738;SDS011;51175;51.186;0.276;2022-12-05T08:29:52;9.88;;;7.63;;
64738;SDS011;51175;51.186;0.276;2022-12-05T08:30:23;11.60;;;7.47;;
64738;SDS011;51175;51.186;0.276;2022-12-05T08:30:53;9.63;;;7.05;;
64738;SDS011;51175;51.186;0.276;2022-12-05T08:31:24;11.02;;;7.50;;
64738;SDS011;51175;51.186;0.276;2022-12-05T08:31:56;9.20;;;7.43;;
64738;SDS011;51175;51.186;0.276;2022-12-05T08:33:17;10.90;;;8.18;;
64738;SDS011;51175;51.186;0.276;2022-12-05T08:33:48;10.75;;;7.60;;
64738;SDS011;51175;51.186;0.276;2022-12-05T08:34:20;12.20;;;8.00;;
64738;SDS011;51175;51.186;0.276;2022-12-05T08:34:51;9.38;;;7.10;;
64738;SDS011;51175;51.186;0.276;2022-12-05T08:35:21;10.70;;;7.60;;
64738;SDS011;51175;51.186;0.276;2022-12-05T08:35:52;9.30;;;7.55;;
64738;SDS011;51175;51.186;0.276;2022-12-05T08:36:22;11.40;;;7.38;;
64738;SDS011;51175;51.186;0.276;2022-12-05T08:36:53;11.48;;;7.88;;
64738;SDS011;51175;51.186;0.276;2022-12-05T08:37:24;10.98;;;7.40;;
64738;SDS011;51175;51.186;0.276;2022-12-05T08:37:54;9.68;;;7.25;;
64738;SDS011;51175;51.186;0.276;2022-12-05T08:38:24;11.15;;;7.38;;
64738;SDS011;51175;51.186;0.276;2022-12-05T08:38:56;10.23;;;7.22;;
64738;SDS011;51175;51.186;0.276;2022-12-05T08:39:30;9.30;;;7.93;;
64738;SDS011;51175;51.186;0.276;2022-12-05T08:40:01;9.48;;;7.15;;
64738;SDS011;51175;51.186;0.276;2022-12-05T08:40:32;10.65;;;7.93;;
64738;SDS011;51175;51.186;0.276;2022-12-05T08:41:06;12.18;;;8.45;;
64738;SDS011;51175;51.186;0.276;2022-12-05T08:41:38;9.98;;;7.10;;
64738;SDS011;51175;51.186;0.276;2022-12-05T08:42:09;9.70;;;7.03;;
64738;SDS011;51175;51.186;0.276;2022-12-05T08:42:40;10.35;;;7.70;;
64738;SDS011;51175;51.186;0.276;2022-12-05T08:43:10;12.77;;;8.32;;
64738;SDS011;51175;51.186;0.276;2022-12-05T08:43:40;13.32;;;8.57;;
64738;SDS011;51175;51.186;0.276;2022-12-05T08:44:11;10.63;;;7.65;;
64738;SDS011;51175;51.186;0.276;2022-12-05T08:44:45;9.73;;;7.07;;